sensor_id;sensor_type;location;lat;lon;timestamp;P1;durP1;ratioP1;P2;durP2;ratioP2
15312;SDS011;7757;52.626;4.746;2023-03-02T00:02:02;8.00;;;2.03;;
15312;SDS011;7757;52.626;4.746;2023-03-02T00:04:52;7.30;;;2.13;;
15312;SDS011;7757;52.626;4.746;2023-03-02T00:07:40;8.57;;;2.40;;
15312;SDS011;7757;52.626;4.746;2023-03-02T00:10:25;8.23;;;2.05;;
15312;SDS011;7757;52.626;4.746;2023-03-02T00:13:11;9.23;;;2.40;;
15312;SDS011;7757;52.626;4.746;2023-03-02T00:15:59;8.80;;;2.17;;
15312;SDS011;7757;52.626;4.746;2023-03-02T00:18:44;8.02;;;2.35;;
15312;SDS011;7757;52.626;4.746;2023-03-02T00:21:29;8.05;;;2.13;;
15312;SDS011;7757;52.626;4.746;2023-03-02T00:24:15;6.95;;;1.90;;
15312;SDS011;7757;52.626;4.746;2023-03-02T00:27:01;9.10;;;2.30;;
15312;SDS011;7757;52.626;4.746;2023-03-02T00:29:46;8.65;;;2.35;;
15312;SDS011;7757;52.626;4.746;2023-03-02T00:32:33;9.18;;;2.28;;
15312;SDS011;7757;52.626;4.746;2023-03-02T00:35:19;9.90;;;2.30;;
15312;SDS011;7757;52.626;4.746;2023-03-02T00:38:04;7.07;;;2.15;;
15312;SDS011;7757;52.626;4.746;2023-03-02T00:40:50;9.05;;;2.53;;
15312;SDS011;7757;52.626;4.746;2023-03-02T00:43:36;7.97;;;2.20;;
15312;SDS011;7757;52.626;4.746;2023-03-02T00:46:22;7.97;;;2.38;;
15312;SDS011;7757;52.626;4.746;2023-03-02T00:49:10;9.73;;;2.42;;
15312;SDS011;7757;52.626;4.746;2023-03-02T00:51:56;8.90;;;2.20;;
15312;SDS011;7757;52.626;4.746;2023-03-02T00:54:41;8.68;;;2.40;;
15312;SDS011;7757;52.626;4.746;2023-03-02T00:57:27;8.02;;;2.20;;
15312;SDS011;7757;52.626;4.746;2023-03-02T01:00:12;8.70;;;2.40;;
15312;SDS011;7757;52.626;4.746;2023-03-02T01:02:58;8.50;;;2.30;;
15312;SDS011;7757;52.626;4.746;2023-03-02T01:05:45;8.65;;;2.17;;
15312;SDS011;7757;52.626;4.746;2023-03-02T01:08:31;7.85;;;2.17;;
15312;SDS011;7757;52.626;4.746;2023-03-02T01:11:18;8.23;;;2.50;;
15312;SDS011;7757;52.626;4.746;2023-03-02T01:14:04;8.75;;;2.20;;
15312;SDS011;7757;52.626;4.746;2023-03-02T01:16:50;8.82;;;2.45;;
15312;SDS011;7757;52.626;4.746;2023-03-02T01:19:35;9.70;;;2.70;;
15312;SDS011;7757;52.626;4.746;2023-03-02T01:22:23;10.20;;;2.85;;
15312;SDS011;7757;52.626;4.746;2023-03-02T01:25:09;10.52;;;2.58;;
15312;SDS011;7757;52.626;4.746;2023-03-02T01:27:54;9.68;;;2.47;;
15312;SDS011;7757;52.626;4.746;2023-03-02T01:30:41;8.35;;;2.30;;
15312;SDS011;7757;52.626;4.746;2023-03-02T01:33:26;8.15;;;2.20;;
15312;SDS011;7757;52.626;4.746;2023-03-02T01:36:11;8.65;;;2.50;;
15312;SDS011;7757;52.626;4.746;2023-03-02T01:38:58;9.13;;;2.42;;
15312;SDS011;7757;52.626;4.746;2023-03-02T01:41:44;8.02;;;2.17;;
15312;SDS011;7757;52.626;4.746;2023-03-02T01:44:37;9.57;;;2.55;;
15312;SDS011;7757;52.626;4.746;2023-03-02T01:47:25;7.55;;;2.00;;
15312;SDS011;7757;52.626;4.746;2023-03-02T01:50:16;9.35;;;2.40;;
15312;SDS011;7757;52.626;4.746;2023-03-02T01:53:04;10.13;;;2.47;;
15312;SDS011;7757;52.626;4.746;2023-03-02T01:55:52;9.25;;;2.42;;
15312;SDS011;7757;52.626;4.746;2023-03-02T01:58:37;8.32;;;2.28;;
15312;SDS011;7757;52.626;4.746;2023-03-02T02:01:23;9.23;;;2.38;;
15312;SDS011;7757;52.626;4.746;2023-03-02T02:04:08;9.82;;;2.67;;
15312;SDS011;7757;52.626;4.746;2023-03-02T02:06:55;8.60;;;2.10;;
15312;SDS011;7757;52.626;4.746;2023-03-02T02:09:46;8.55;;;2.40;;
15312;SDS011;7757;52.626;4.746;2023-03-02T02:12:35;8.52;;;2.10;;
15312;SDS011;7757;52.626;4.746;2023-03-02T02:15:20;8.85;;;2.50;;
15312;SDS011;7757;52.626;4.746;2023-03-02T02:18:06;12.00;;;2.38;;
15312;SDS011;7757;52.626;4.746;2023-03-02T02:20:52;8.63;;;2.65;;
15312;SDS011;7757;52.626;4.746;2023-03-02T02:23:39;9.18;;;2.40;;
15312;SDS011;7757;52.626;4.746;2023-03-02T02:26:32;8.73;;;2.50;;
15312;SDS011;7757;52.626;4.746;2023-03-02T02:29:21;10.15;;;2.38;;
15312;SDS011;7757;52.626;4.746;2023-03-02T02:32:12;9.27;;;2.55;;
15312;SDS011;7757;52.626;4.746;2023-03-02T02:35:00;8.95;;;2.45;;
15312;SDS011;7757;52.626;4.746;2023-03-02T02:37:49;8.27;;;2.30;;
15312;SDS011;7757;52.626;4.746;2023-03-02T02:40:38;10.45;;;2.60;;
15312;SDS011;7757;52.626;4.746;2023-03-02T02:43:30;10.07;;;2.80;;
15312;SDS011;7757;52.626;4.746;2023-03-02T02:46:16;8.02;;;2.33;;
15312;SDS011;7757;52.626;4.746;2023-03-02T02:49:04;9.90;;;2.80;;
15312;SDS011;7757;52.626;4.746;2023-03-02T02:54:46;7.65;;;2.30;;
15312;SDS011;7757;52.626;4.746;2023-03-02T02:57:34;9.35;;;2.70;;
15312;SDS011;7757;52.626;4.746;2023-03-02T03:00:21;9.25;;;2.72;;
15312;SDS011;7757;52.626;4.746;2023-03-02T03:03:10;9.18;;;2.55;;
15312;SDS011;7757;52.626;4.746;2023-03-02T03:06:13;9.57;;;2.40;;
15312;SDS011;7757;52.626;4.746;2023-03-02T03:09:02;9.55;;;2.78;;
15312;SDS011;7757;52.626;4.746;2023-03-02T03:11:48;9.02;;;2.67;;
15312;SDS011;7757;52.626;4.746;2023-03-02T03:14:37;9.43;;;2.58;;
15312;SDS011;7757;52.626;4.746;2023-03-02T03:17:25;7.35;;;2.22;;
15312;SDS011;7757;52.626;4.746;2023-03-02T03:20:11;10.18;;;2.85;;
15312;SDS011;7757;52.626;4.746;2023-03-02T03:23:00;8.02;;;2.30;;
15312;SDS011;7757;52.626;4.746;2023-03-02T03:25:45;8.95;;;2.60;;
15312;SDS011;7757;52.626;4.746;2023-03-02T03:28:31;8.48;;;2.63;;
15312;SDS011;7757;52.626;4.746;2023-03-02T03:31:18;8.60;;;2.60;;
15312;SDS011;7757;52.626;4.746;2023-03-02T03:34:05;9.25;;;2.60;;
15312;SDS011;7757;52.626;4.746;2023-03-02T03:36:51;10.18;;;2.80;;
15312;SDS011;7757;52.626;4.746;2023-03-02T03:39:37;8.90;;;2.45;;
15312;SDS011;7757;52.626;4.746;2023-03-02T03:42:23;9.73;;;2.75;;
15312;SDS011;7757;52.626;4.746;2023-03-02T03:45:08;9.23;;;2.60;;
15312;SDS011;7757;52.626;4.746;2023-03-02T03:47:54;9.13;;;2.50;;
15312;SDS011;7757;52.626;4.746;2023-03-02T03:50:41;8.57;;;2.45;;
15312;SDS011;7757;52.626;4.746;2023-03-02T03:53:27;7.93;;;2.33;;
15312;SDS011;7757;52.626;4.746;2023-03-02T03:56:13;10.48;;;2.83;;
15312;SDS011;7757;52.626;4.746;2023-03-02T03:58:58;9.70;;;2.67;;
15312;SDS011;7757;52.626;4.746;2023-03-02T04:01:50;8.98;;;2.42;;
15312;SDS011;7757;52.626;4.746;2023-03-02T04:04:38;10.20;;;2.50;;
15312;SDS011;7757;52.626;4.746;2023-03-02T04:07:25;8.95;;;2.60;;
15312;SDS011;7757;52.626;4.746;2023-03-02T04:10:11;8.25;;;2.30;;
15312;SDS011;7757;52.626;4.746;2023-03-02T04:12:56;8.57;;;2.50;;
15312;SDS011;7757;52.626;4.746;2023-03-02T04:15:43;8.57;;;2.70;;
15312;SDS011;7757;52.626;4.746;2023-03-02T04:18:29;9.02;;;2.70;;
15312;SDS011;7757;52.626;4.746;2023-03-02T04:21:14;8.60;;;2.60;;
15312;SDS011;7757;52.626;4.746;2023-03-02T04:24:01;8.43;;;2.40;;
15312;SDS011;7757;52.626;4.746;2023-03-02T04:26:47;7.80;;;2.22;;
15312;SDS011;7757;52.626;4.746;2023-03-02T04:29:33;8.90;;;2.38;;
15312;SDS011;7757;52.626;4.746;2023-03-02T04:32:18;10.13;;;2.55;;
15312;SDS011;7757;52.626;4.746;2023-03-02T04:35:04;9.45;;;2.60;;
15312;SDS011;7757;52.626;4.746;2023-03-02T04:37:50;7.78;;;2.33;;
15312;SDS011;7757;52.626;4.746;2023-03-02T04:40:37;9.52;;;2.40;;
15312;SDS011;7757;52.626;4.746;2023-03-02T04:43:22;8.25;;;2.33;;
15312;SDS011;7757;52.626;4.746;2023-03-02T04:46:09;8.85;;;2.35;;
15312;SDS011;7757;52.626;4.746;2023-03-02T04:48:58;9.48;;;2.53;;
15312;SDS011;7757;52.626;4.746;2023-03-02T04:51:44;9.80;;;2.70;;
15312;SDS011;7757;52.626;4.746;2023-03-02T04:54:31;8.95;;;2.53;;
15312;SDS011;7757;52.626;4.746;2023-03-02T04:57:18;9.27;;;2.67;;
15312;SDS011;7757;52.626;4.746;2023-03-02T05:00:03;8.52;;;2.35;;
15312;SDS011;7757;52.626;4.746;2023-03-02T05:02:52;9.57;;;2.55;;
15312;SDS011;7757;52.626;4.746;2023-03-02T05:05:38;8.82;;;2.40;;
15312;SDS011;7757;52.626;4.746;2023-03-02T05:08:23;9.40;;;2.58;;
15312;SDS011;7757;52.626;4.746;2023-03-02T05:11:09;8.40;;;2.60;;
15312;SDS011;7757;52.626;4.746;2023-03-02T05:14:07;9.50;;;2.70;;
15312;SDS011;7757;52.626;4.746;2023-03-02T05:16:54;7.82;;;2.47;;
15312;SDS011;7757;52.626;4.746;2023-03-02T05:19:39;8.88;;;2.45;;
15312;SDS011;7757;52.626;4.746;2023-03-02T05:22:25;10.25;;;2.80;;
15312;SDS011;7757;52.626;4.746;2023-03-02T05:25:10;9.00;;;2.40;;
15312;SDS011;7757;52.626;4.746;2023-03-02T05:27:56;8.70;;;2.40;;
15312;SDS011;7757;52.626;4.746;2023-03-02T05:30:43;8.02;;;2.17;;
15312;SDS011;7757;52.626;4.746;2023-03-02T05:33:29;8.60;;;2.45;;
15312;SDS011;7757;52.626;4.746;2023-03-02T05:36:14;8.80;;;2.45;;
15312;SDS011;7757;52.626;4.746;2023-03-02T05:39:00;7.95;;;2.30;;
15312;SDS011;7757;52.626;4.746;2023-03-02T05:41:46;8.00;;;2.50;;
15312;SDS011;7757;52.626;4.746;2023-03-02T05:44:31;7.93;;;2.35;;
15312;SDS011;7757;52.626;4.746;2023-03-02T05:47:18;8.48;;;2.42;;
15312;SDS011;7757;52.626;4.746;2023-03-02T05:50:04;9.60;;;2.70;;
15312;SDS011;7757;52.626;4.746;2023-03-02T05:52:50;9.15;;;2.60;;
15312;SDS011;7757;52.626;4.746;2023-03-02T05:55:35;9.45;;;2.42;;
15312;SDS011;7757;52.626;4.746;2023-03-02T05:58:21;8.00;;;2.47;;
15312;SDS011;7757;52.626;4.746;2023-03-02T06:01:07;8.45;;;2.30;;
15312;SDS011;7757;52.626;4.746;2023-03-02T06:03:55;8.45;;;2.35;;
15312;SDS011;7757;52.626;4.746;2023-03-02T06:06:41;7.88;;;2.40;;
15312;SDS011;7757;52.626;4.746;2023-03-02T06:09:26;10.18;;;2.60;;
15312;SDS011;7757;52.626;4.746;2023-03-02T06:12:12;9.75;;;2.80;;
15312;SDS011;7757;52.626;4.746;2023-03-02T06:14:57;7.88;;;2.33;;
15312;SDS011;7757;52.626;4.746;2023-03-02T06:17:42;8.85;;;2.60;;
15312;SDS011;7757;52.626;4.746;2023-03-02T06:20:29;8.18;;;2.28;;
15312;SDS011;7757;52.626;4.746;2023-03-02T06:23:14;8.02;;;2.50;;
15312;SDS011;7757;52.626;4.746;2023-03-02T06:26:07;9.55;;;2.70;;
15312;SDS011;7757;52.626;4.746;2023-03-02T06:28:53;9.18;;;2.42;;
15312;SDS011;7757;52.626;4.746;2023-03-02T06:31:38;7.47;;;2.30;;
15312;SDS011;7757;52.626;4.746;2023-03-02T06:34:24;8.85;;;2.67;;
15312;SDS011;7757;52.626;4.746;2023-03-02T06:37:11;8.82;;;2.40;;
15312;SDS011;7757;52.626;4.746;2023-03-02T06:39:56;8.38;;;2.50;;
15312;SDS011;7757;52.626;4.746;2023-03-02T06:42:42;9.52;;;2.42;;
15312;SDS011;7757;52.626;4.746;2023-03-02T06:45:27;8.73;;;2.50;;
15312;SDS011;7757;52.626;4.746;2023-03-02T06:48:16;9.02;;;2.40;;
15312;SDS011;7757;52.626;4.746;2023-03-02T06:51:01;9.75;;;2.70;;
15312;SDS011;7757;52.626;4.746;2023-03-02T06:53:48;9.05;;;2.40;;
15312;SDS011;7757;52.626;4.746;2023-03-02T06:56:33;8.55;;;2.45;;
15312;SDS011;7757;52.626;4.746;2023-03-02T06:59:19;8.02;;;2.17;;
15312;SDS011;7757;52.626;4.746;2023-03-02T07:02:04;8.40;;;2.60;;
15312;SDS011;7757;52.626;4.746;2023-03-02T07:04:50;8.80;;;2.42;;
15312;SDS011;7757;52.626;4.746;2023-03-02T07:07:36;9.25;;;2.72;;
15312;SDS011;7757;52.626;4.746;2023-03-02T07:10:22;8.27;;;2.30;;
15312;SDS011;7757;52.626;4.746;2023-03-02T07:13:08;8.48;;;2.40;;
15312;SDS011;7757;52.626;4.746;2023-03-02T07:15:53;7.90;;;2.35;;
15312;SDS011;7757;52.626;4.746;2023-03-02T07:18:39;8.73;;;2.50;;
15312;SDS011;7757;52.626;4.746;2023-03-02T07:21:24;8.77;;;2.40;;
15312;SDS011;7757;52.626;4.746;2023-03-02T07:24:10;9.02;;;2.67;;
15312;SDS011;7757;52.626;4.746;2023-03-02T07:26:56;8.40;;;2.10;;
15312;SDS011;7757;52.626;4.746;2023-03-02T07:29:42;8.65;;;2.35;;
15312;SDS011;7757;52.626;4.746;2023-03-02T07:32:27;8.75;;;2.40;;
15312;SDS011;7757;52.626;4.746;2023-03-02T07:35:13;8.77;;;2.20;;
15312;SDS011;7757;52.626;4.746;2023-03-02T07:38:00;9.18;;;2.47;;
15312;SDS011;7757;52.626;4.746;2023-03-02T07:40:45;7.50;;;2.17;;
15312;SDS011;7757;52.626;4.746;2023-03-02T07:43:32;8.75;;;2.40;;
15312;SDS011;7757;52.626;4.746;2023-03-02T07:46:19;8.35;;;2.25;;
15312;SDS011;7757;52.626;4.746;2023-03-02T07:49:04;8.07;;;2.25;;
15312;SDS011;7757;52.626;4.746;2023-03-02T07:51:50;7.50;;;2.13;;
15312;SDS011;7757;52.626;4.746;2023-03-02T07:54:36;8.00;;;2.40;;
15312;SDS011;7757;52.626;4.746;2023-03-02T07:57:21;9.48;;;2.42;;
15312;SDS011;7757;52.626;4.746;2023-03-02T08:00:09;8.85;;;2.30;;
15312;SDS011;7757;52.626;4.746;2023-03-02T08:02:55;7.93;;;2.28;;
15312;SDS011;7757;52.626;4.746;2023-03-02T08:05:40;11.70;;;2.55;;
15312;SDS011;7757;52.626;4.746;2023-03-02T08:08:25;8.18;;;2.15;;
15312;SDS011;7757;52.626;4.746;2023-03-02T08:11:11;7.50;;;2.20;;
15312;SDS011;7757;52.626;4.746;2023-03-02T08:13:58;11.02;;;2.97;;
15312;SDS011;7757;52.626;4.746;2023-03-02T08:16:45;9.75;;;2.92;;
15312;SDS011;7757;52.626;4.746;2023-03-02T08:19:30;18.92;;;3.35;;
15312;SDS011;7757;52.626;4.746;2023-03-02T08:22:16;11.23;;;2.70;;
15312;SDS011;7757;52.626;4.746;2023-03-02T08:25:02;12.05;;;3.22;;
15312;SDS011;7757;52.626;4.746;2023-03-02T08:27:48;11.38;;;2.90;;
15312;SDS011;7757;52.626;4.746;2023-03-02T08:30:33;12.73;;;3.20;;
15312;SDS011;7757;52.626;4.746;2023-03-02T08:33:20;11.85;;;3.40;;
15312;SDS011;7757;52.626;4.746;2023-03-02T08:36:06;12.75;;;3.45;;
15312;SDS011;7757;52.626;4.746;2023-03-02T08:38:52;10.25;;;3.05;;
15312;SDS011;7757;52.626;4.746;2023-03-02T08:41:38;13.38;;;3.63;;
15312;SDS011;7757;52.626;4.746;2023-03-02T08:44:23;12.05;;;2.95;;
15312;SDS011;7757;52.626;4.746;2023-03-02T08:47:09;13.27;;;3.10;;
15312;SDS011;7757;52.626;4.746;2023-03-02T08:49:56;11.38;;;3.17;;
15312;SDS011;7757;52.626;4.746;2023-03-02T08:52:41;10.93;;;2.80;;
15312;SDS011;7757;52.626;4.746;2023-03-02T08:55:27;10.27;;;3.25;;
15312;SDS011;7757;52.626;4.746;2023-03-02T08:58:12;12.32;;;3.35;;
15312;SDS011;7757;52.626;4.746;2023-03-02T09:00:57;12.93;;;3.00;;
15312;SDS011;7757;52.626;4.746;2023-03-02T09:03:43;13.10;;;2.95;;
15312;SDS011;7757;52.626;4.746;2023-03-02T09:06:31;10.73;;;3.05;;
15312;SDS011;7757;52.626;4.746;2023-03-02T09:09:18;10.50;;;3.03;;
15312;SDS011;7757;52.626;4.746;2023-03-02T09:12:04;13.02;;;3.20;;
15312;SDS011;7757;52.626;4.746;2023-03-02T09:14:50;12.23;;;3.22;;
15312;SDS011;7757;52.626;4.746;2023-03-02T09:17:35;11.50;;;3.00;;
15312;SDS011;7757;52.626;4.746;2023-03-02T09:20:21;11.23;;;3.40;;
15312;SDS011;7757;52.626;4.746;2023-03-02T09:23:08;16.80;;;4.65;;
15312;SDS011;7757;52.626;4.746;2023-03-02T09:25:55;14.40;;;3.50;;
15312;SDS011;7757;52.626;4.746;2023-03-02T09:28:40;11.57;;;3.20;;
15312;SDS011;7757;52.626;4.746;2023-03-02T09:31:26;12.90;;;3.67;;
15312;SDS011;7757;52.626;4.746;2023-03-02T09:34:11;13.68;;;3.05;;
15312;SDS011;7757;52.626;4.746;2023-03-02T09:36:56;12.13;;;3.05;;
15312;SDS011;7757;52.626;4.746;2023-03-02T09:39:43;12.25;;;3.15;;
15312;SDS011;7757;52.626;4.746;2023-03-02T09:42:38;11.25;;;3.20;;
15312;SDS011;7757;52.626;4.746;2023-03-02T09:45:36;12.13;;;3.10;;
15312;SDS011;7757;52.626;4.746;2023-03-02T09:48:36;16.33;;;3.38;;
15312;SDS011;7757;52.626;4.746;2023-03-02T09:51:30;12.50;;;3.58;;
15312;SDS011;7757;52.626;4.746;2023-03-02T09:54:20;12.27;;;3.17;;
15312;SDS011;7757;52.626;4.746;2023-03-02T09:57:18;16.17;;;3.28;;
15312;SDS011;7757;52.626;4.746;2023-03-02T10:00:06;15.18;;;4.00;;
15312;SDS011;7757;52.626;4.746;2023-03-02T10:02:56;11.35;;;3.35;;
15312;SDS011;7757;52.626;4.746;2023-03-02T10:05:44;10.63;;;3.30;;
15312;SDS011;7757;52.626;4.746;2023-03-02T10:08:33;12.55;;;3.40;;
15312;SDS011;7757;52.626;4.746;2023-03-02T10:11:21;13.32;;;4.10;;
15312;SDS011;7757;52.626;4.746;2023-03-02T10:14:14;12.43;;;3.72;;
15312;SDS011;7757;52.626;4.746;2023-03-02T10:17:12;13.27;;;3.42;;
15312;SDS011;7757;52.626;4.746;2023-03-02T10:20:09;12.25;;;3.30;;
15312;SDS011;7757;52.626;4.746;2023-03-02T10:23:04;11.18;;;3.65;;
15312;SDS011;7757;52.626;4.746;2023-03-02T10:25:59;12.82;;;3.63;;
15312;SDS011;7757;52.626;4.746;2023-03-02T10:28:54;13.35;;;3.72;;
15312;SDS011;7757;52.626;4.746;2023-03-02T10:31:46;12.70;;;3.83;;
15312;SDS011;7757;52.626;4.746;2023-03-02T10:34:36;13.30;;;3.42;;
15312;SDS011;7757;52.626;4.746;2023-03-02T10:37:23;13.07;;;3.70;;
15312;SDS011;7757;52.626;4.746;2023-03-02T10:40:16;14.23;;;3.75;;
15312;SDS011;7757;52.626;4.746;2023-03-02T10:43:14;14.38;;;4.03;;
15312;SDS011;7757;52.626;4.746;2023-03-02T10:46:03;11.90;;;3.20;;
15312;SDS011;7757;52.626;4.746;2023-03-02T10:48:53;12.30;;;3.70;;
15312;SDS011;7757;52.626;4.746;2023-03-02T10:51:44;12.48;;;3.53;;
15312;SDS011;7757;52.626;4.746;2023-03-02T10:54:30;12.50;;;3.75;;
15312;SDS011;7757;52.626;4.746;2023-03-02T10:57:27;12.10;;;3.60;;
15312;SDS011;7757;52.626;4.746;2023-03-02T11:00:15;10.95;;;3.70;;
15312;SDS011;7757;52.626;4.746;2023-03-02T11:03:16;11.15;;;3.63;;
15312;SDS011;7757;52.626;4.746;2023-03-02T11:06:17;11.88;;;3.88;;
15312;SDS011;7757;52.626;4.746;2023-03-02T11:09:05;11.30;;;3.40;;
15312;SDS011;7757;52.626;4.746;2023-03-02T11:11:52;12.82;;;4.03;;
15312;SDS011;7757;52.626;4.746;2023-03-02T11:14:39;11.75;;;3.72;;
15312;SDS011;7757;52.626;4.746;2023-03-02T11:17:28;11.68;;;3.83;;
15312;SDS011;7757;52.626;4.746;2023-03-02T11:20:19;12.52;;;3.80;;
15312;SDS011;7757;52.626;4.746;2023-03-02T11:23:17;11.98;;;3.63;;
15312;SDS011;7757;52.626;4.746;2023-03-02T11:26:11;11.48;;;3.70;;
15312;SDS011;7757;52.626;4.746;2023-03-02T11:29:02;11.93;;;4.07;;
15312;SDS011;7757;52.626;4.746;2023-03-02T11:31:50;12.35;;;3.95;;
15312;SDS011;7757;52.626;4.746;2023-03-02T11:34:41;11.95;;;4.13;;
15312;SDS011;7757;52.626;4.746;2023-03-02T11:37:33;13.52;;;4.05;;
15312;SDS011;7757;52.626;4.746;2023-03-02T11:40:26;14.43;;;4.82;;
15312;SDS011;7757;52.626;4.746;2023-03-02T11:43:15;12.90;;;3.72;;
15312;SDS011;7757;52.626;4.746;2023-03-02T11:46:01;12.75;;;4.10;;
15312;SDS011;7757;52.626;4.746;2023-03-02T11:48:48;15.13;;;4.18;;
15312;SDS011;7757;52.626;4.746;2023-03-02T11:51:37;12.82;;;4.30;;
15312;SDS011;7757;52.626;4.746;2023-03-02T11:54:28;11.65;;;3.85;;
15312;SDS011;7757;52.626;4.746;2023-03-02T11:57:22;13.07;;;4.28;;
15312;SDS011;7757;52.626;4.746;2023-03-02T12:00:14;11.82;;;3.78;;
15312;SDS011;7757;52.626;4.746;2023-03-02T12:03:06;12.27;;;4.07;;
15312;SDS011;7757;52.626;4.746;2023-03-02T12:06:05;11.88;;;4.32;;
15312;SDS011;7757;52.626;4.746;2023-03-02T12:08:53;12.38;;;3.90;;
15312;SDS011;7757;52.626;4.746;2023-03-02T12:11:53;13.18;;;4.18;;
15312;SDS011;7757;52.626;4.746;2023-03-02T12:14:40;12.90;;;4.32;;
15312;SDS011;7757;52.626;4.746;2023-03-02T12:17:30;13.35;;;4.15;;
15312;SDS011;7757;52.626;4.746;2023-03-02T12:20:21;13.88;;;4.55;;
15312;SDS011;7757;52.626;4.746;2023-03-02T12:23:19;12.32;;;4.32;;
15312;SDS011;7757;52.626;4.746;2023-03-02T12:26:22;13.13;;;4.45;;
15312;SDS011;7757;52.626;4.746;2023-03-02T12:29:21;13.70;;;4.38;;
15312;SDS011;7757;52.626;4.746;2023-03-02T12:32:11;13.80;;;4.45;;
15312;SDS011;7757;52.626;4.746;2023-03-02T12:35:08;12.48;;;4.38;;
15312;SDS011;7757;52.626;4.746;2023-03-02T12:37:58;13.88;;;4.30;;
15312;SDS011;7757;52.626;4.746;2023-03-02T12:40:51;12.27;;;4.40;;
15312;SDS011;7757;52.626;4.746;2023-03-02T12:43:46;13.82;;;4.40;;
15312;SDS011;7757;52.626;4.746;2023-03-02T12:46:44;13.43;;;4.18;;
15312;SDS011;7757;52.626;4.746;2023-03-02T12:49:39;13.88;;;4.40;;
15312;SDS011;7757;52.626;4.746;2023-03-02T12:52:30;15.35;;;4.90;;
15312;SDS011;7757;52.626;4.746;2023-03-02T12:55:17;13.75;;;4.53;;
15312;SDS011;7757;52.626;4.746;2023-03-02T12:58:11;14.18;;;4.80;;
15312;SDS011;7757;52.626;4.746;2023-03-02T13:01:01;13.95;;;4.63;;
15312;SDS011;7757;52.626;4.746;2023-03-02T13:03:48;14.60;;;5.22;;
15312;SDS011;7757;52.626;4.746;2023-03-02T13:06:37;15.02;;;5.18;;
15312;SDS011;7757;52.626;4.746;2023-03-02T13:09:23;14.30;;;4.90;;
15312;SDS011;7757;52.626;4.746;2023-03-02T13:12:11;16.25;;;5.63;;
15312;SDS011;7757;52.626;4.746;2023-03-02T13:14:58;14.63;;;4.82;;
15312;SDS011;7757;52.626;4.746;2023-03-02T13:17:44;13.25;;;4.70;;
15312;SDS011;7757;52.626;4.746;2023-03-02T13:20:37;13.07;;;4.28;;
15312;SDS011;7757;52.626;4.746;2023-03-02T13:23:24;13.93;;;4.78;;
15312;SDS011;7757;52.626;4.746;2023-03-02T13:26:19;12.65;;;4.55;;
15312;SDS011;7757;52.626;4.746;2023-03-02T13:29:15;12.40;;;4.50;;
15312;SDS011;7757;52.626;4.746;2023-03-02T13:32:13;14.50;;;4.70;;
15312;SDS011;7757;52.626;4.746;2023-03-02T13:35:00;15.05;;;4.85;;
15312;SDS011;7757;52.626;4.746;2023-03-02T13:37:53;14.73;;;4.75;;
15312;SDS011;7757;52.626;4.746;2023-03-02T13:40:41;13.32;;;4.38;;
15312;SDS011;7757;52.626;4.746;2023-03-02T13:43:37;14.95;;;4.78;;
15312;SDS011;7757;52.626;4.746;2023-03-02T13:46:24;13.55;;;4.13;;
15312;SDS011;7757;52.626;4.746;2023-03-02T13:49:12;14.27;;;4.55;;
15312;SDS011;7757;52.626;4.746;2023-03-02T13:51:59;14.77;;;4.78;;
15312;SDS011;7757;52.626;4.746;2023-03-02T13:54:47;14.80;;;5.05;;
15312;SDS011;7757;52.626;4.746;2023-03-02T13:57:34;13.27;;;4.38;;
15312;SDS011;7757;52.626;4.746;2023-03-02T14:00:20;14.85;;;5.22;;
15312;SDS011;7757;52.626;4.746;2023-03-02T14:03:14;13.88;;;4.30;;
15312;SDS011;7757;52.626;4.746;2023-03-02T14:06:06;13.60;;;4.38;;
15312;SDS011;7757;52.626;4.746;2023-03-02T14:08:52;13.43;;;4.80;;
15312;SDS011;7757;52.626;4.746;2023-03-02T14:11:39;13.35;;;4.47;;
15312;SDS011;7757;52.626;4.746;2023-03-02T14:14:27;14.55;;;4.68;;
15312;SDS011;7757;52.626;4.746;2023-03-02T14:17:16;13.63;;;4.72;;
15312;SDS011;7757;52.626;4.746;2023-03-02T14:20:11;14.32;;;4.85;;
15312;SDS011;7757;52.626;4.746;2023-03-02T14:22:58;14.77;;;4.47;;
15312;SDS011;7757;52.626;4.746;2023-03-02T14:25:45;13.45;;;4.88;;
15312;SDS011;7757;52.626;4.746;2023-03-02T14:28:32;14.05;;;4.75;;
15312;SDS011;7757;52.626;4.746;2023-03-02T14:31:20;14.23;;;5.05;;
15312;SDS011;7757;52.626;4.746;2023-03-02T14:34:08;15.23;;;4.85;;
15312;SDS011;7757;52.626;4.746;2023-03-02T14:36:57;14.88;;;5.18;;
15312;SDS011;7757;52.626;4.746;2023-03-02T14:39:47;14.15;;;4.30;;
15312;SDS011;7757;52.626;4.746;2023-03-02T14:42:34;14.52;;;4.75;;
15312;SDS011;7757;52.626;4.746;2023-03-02T14:45:20;12.25;;;4.32;;
15312;SDS011;7757;52.626;4.746;2023-03-02T14:48:07;14.32;;;4.63;;
15312;SDS011;7757;52.626;4.746;2023-03-02T14:50:52;13.13;;;4.13;;
15312;SDS011;7757;52.626;4.746;2023-03-02T14:53:38;14.02;;;4.72;;
15312;SDS011;7757;52.626;4.746;2023-03-02T14:56:23;14.70;;;4.97;;
15312;SDS011;7757;52.626;4.746;2023-03-02T14:59:09;15.75;;;4.97;;
15312;SDS011;7757;52.626;4.746;2023-03-02T15:01:57;14.93;;;4.75;;
15312;SDS011;7757;52.626;4.746;2023-03-02T15:04:44;13.60;;;4.28;;
15312;SDS011;7757;52.626;4.746;2023-03-02T15:07:29;14.20;;;4.35;;
15312;SDS011;7757;52.626;4.746;2023-03-02T15:10:17;14.15;;;4.50;;
15312;SDS011;7757;52.626;4.746;2023-03-02T15:13:04;13.52;;;3.92;;
15312;SDS011;7757;52.626;4.746;2023-03-02T15:15:49;13.13;;;4.90;;
15312;SDS011;7757;52.626;4.746;2023-03-02T15:18:35;13.70;;;4.43;;
15312;SDS011;7757;52.626;4.746;2023-03-02T15:21:22;12.80;;;3.80;;
15312;SDS011;7757;52.626;4.746;2023-03-02T15:24:09;14.70;;;4.50;;
15312;SDS011;7757;52.626;4.746;2023-03-02T15:26:54;15.02;;;3.97;;
15312;SDS011;7757;52.626;4.746;2023-03-02T15:29:41;13.98;;;4.00;;
15312;SDS011;7757;52.626;4.746;2023-03-02T15:32:27;13.27;;;3.75;;
15312;SDS011;7757;52.626;4.746;2023-03-02T15:35:13;13.93;;;4.13;;
15312;SDS011;7757;52.626;4.746;2023-03-02T15:38:00;13.02;;;4.00;;
15312;SDS011;7757;52.626;4.746;2023-03-02T15:40:47;14.27;;;4.20;;
15312;SDS011;7757;52.626;4.746;2023-03-02T15:43:32;15.27;;;4.03;;
15312;SDS011;7757;52.626;4.746;2023-03-02T15:46:18;16.80;;;4.20;;
15312;SDS011;7757;52.626;4.746;2023-03-02T15:49:05;12.38;;;3.90;;
15312;SDS011;7757;52.626;4.746;2023-03-02T15:51:50;12.32;;;3.90;;
15312;SDS011;7757;52.626;4.746;2023-03-02T15:54:38;11.48;;;3.42;;
15312;SDS011;7757;52.626;4.746;2023-03-02T15:57:24;14.85;;;3.92;;
15312;SDS011;7757;52.626;4.746;2023-03-02T16:00:10;13.07;;;3.28;;
15312;SDS011;7757;52.626;4.746;2023-03-02T16:02:56;14.38;;;3.85;;
15312;SDS011;7757;52.626;4.746;2023-03-02T16:05:42;13.30;;;3.33;;
15312;SDS011;7757;52.626;4.746;2023-03-02T16:08:27;14.80;;;3.38;;
15312;SDS011;7757;52.626;4.746;2023-03-02T16:11:14;11.63;;;3.50;;
15312;SDS011;7757;52.626;4.746;2023-03-02T16:14:01;14.10;;;4.10;;
15312;SDS011;7757;52.626;4.746;2023-03-02T16:16:47;13.80;;;3.60;;
15312;SDS011;7757;52.626;4.746;2023-03-02T16:19:32;13.55;;;3.35;;
15312;SDS011;7757;52.626;4.746;2023-03-02T16:22:18;12.18;;;3.28;;
15312;SDS011;7757;52.626;4.746;2023-03-02T16:25:04;14.00;;;3.50;;
15312;SDS011;7757;52.626;4.746;2023-03-02T16:27:51;11.05;;;2.92;;
15312;SDS011;7757;52.626;4.746;2023-03-02T16:30:37;11.07;;;3.58;;
15312;SDS011;7757;52.626;4.746;2023-03-02T16:33:24;12.25;;;2.97;;
15312;SDS011;7757;52.626;4.746;2023-03-02T16:36:10;11.57;;;3.53;;
15312;SDS011;7757;52.626;4.746;2023-03-02T16:38:55;12.13;;;2.97;;
15312;SDS011;7757;52.626;4.746;2023-03-02T16:41:41;13.00;;;3.63;;
15312;SDS011;7757;52.626;4.746;2023-03-02T16:44:30;14.02;;;3.45;;
15312;SDS011;7757;52.626;4.746;2023-03-02T16:47:15;11.07;;;2.75;;
15312;SDS011;7757;52.626;4.746;2023-03-02T16:50:01;11.68;;;3.20;;
15312;SDS011;7757;52.626;4.746;2023-03-02T16:52:46;11.13;;;3.00;;
15312;SDS011;7757;52.626;4.746;2023-03-02T16:55:32;11.95;;;3.17;;
15312;SDS011;7757;52.626;4.746;2023-03-02T16:58:17;12.13;;;3.22;;
15312;SDS011;7757;52.626;4.746;2023-03-02T17:01:04;12.02;;;3.08;;